sensor_id;sensor_type;location;lat;lon;timestamp;P1;durP1;ratioP1;P2;durP2;ratioP2
75926;SDS011;64605;48.296;16.416;2022-11-23T00:01:34;49.72;;;33.20;;
75926;SDS011;64605;48.296;16.416;2022-11-23T00:04:04;44.75;;;31.88;;
75926;SDS011;64605;48.296;16.416;2022-11-23T00:06:32;46.90;;;33.15;;
75926;SDS011;64605;48.296;16.416;2022-11-23T00:08:58;47.28;;;33.75;;
75926;SDS011;64605;48.296;16.416;2022-11-23T00:11:25;47.60;;;33.05;;
75926;SDS011;64605;48.296;16.416;2022-11-23T00:13:52;53.47;;;35.13;;
75926;SDS011;64605;48.296;16.416;2022-11-23T00:16:21;56.08;;;36.05;;
75926;SDS011;64605;48.296;16.416;2022-11-23T00:18:50;49.75;;;34.33;;
75926;SDS011;64605;48.296;16.416;2022-11-23T00:21:17;56.03;;;35.22;;
75926;SDS011;64605;48.296;16.416;2022-11-23T00:23:44;52.53;;;35.22;;
75926;SDS011;64605;48.296;16.416;2022-11-23T00:26:10;56.50;;;37.60;;
75926;SDS011;64605;48.296;16.416;2022-11-23T00:28:36;48.22;;;32.63;;
75926;SDS011;64605;48.296;16.416;2022-11-23T00:31:07;55.70;;;37.63;;
75926;SDS011;64605;48.296;16.416;2022-11-23T00:33:35;52.88;;;35.40;;
75926;SDS011;64605;48.296;16.416;2022-11-23T00:36:02;52.13;;;35.30;;
75926;SDS011;64605;48.296;16.416;2022-11-23T00:38:29;48.22;;;32.60;;
75926;SDS011;64605;48.296;16.416;2022-11-23T00:40:56;49.65;;;33.90;;
75926;SDS011;64605;48.296;16.416;2022-11-23T00:43:23;49.05;;;33.60;;
75926;SDS011;64605;48.296;16.416;2022-11-23T00:45:49;51.78;;;35.00;;
75926;SDS011;64605;48.296;16.416;2022-11-23T00:48:15;55.63;;;37.60;;
75926;SDS011;64605;48.296;16.416;2022-11-23T00:50:40;53.63;;;36.05;;
75926;SDS011;64605;48.296;16.416;2022-11-23T00:53:06;54.33;;;36.78;;
75926;SDS011;64605;48.296;16.416;2022-11-23T00:55:32;49.45;;;34.58;;
75926;SDS011;64605;48.296;16.416;2022-11-23T00:57:57;50.40;;;34.05;;
75926;SDS011;64605;48.296;16.416;2022-11-23T01:00:23;51.35;;;34.75;;
75926;SDS011;64605;48.296;16.416;2022-11-23T01:02:48;52.53;;;36.80;;
75926;SDS011;64605;48.296;16.416;2022-11-23T01:05:14;50.95;;;35.42;;
75926;SDS011;64605;48.296;16.416;2022-11-23T01:07:40;52.55;;;37.28;;
75926;SDS011;64605;48.296;16.416;2022-11-23T01:10:05;51.05;;;34.90;;
75926;SDS011;64605;48.296;16.416;2022-11-23T01:12:32;50.63;;;35.10;;
75926;SDS011;64605;48.296;16.416;2022-11-23T01:14:58;50.00;;;34.90;;
75926;SDS011;64605;48.296;16.416;2022-11-23T01:17:23;54.80;;;35.60;;
75926;SDS011;64605;48.296;16.416;2022-11-23T01:19:49;51.15;;;34.67;;
75926;SDS011;64605;48.296;16.416;2022-11-23T01:22:15;57.38;;;38.22;;
75926;SDS011;64605;48.296;16.416;2022-11-23T01:24:40;49.08;;;33.97;;
75926;SDS011;64605;48.296;16.416;2022-11-23T01:27:06;55.08;;;37.53;;
75926;SDS011;64605;48.296;16.416;2022-11-23T01:29:31;64.55;;;39.88;;
75926;SDS011;64605;48.296;16.416;2022-11-23T01:31:57;58.10;;;36.97;;
75926;SDS011;64605;48.296;16.416;2022-11-23T01:34:23;56.38;;;37.53;;
75926;SDS011;64605;48.296;16.416;2022-11-23T01:36:48;56.85;;;37.47;;
75926;SDS011;64605;48.296;16.416;2022-11-23T01:39:14;49.58;;;34.42;;
75926;SDS011;64605;48.296;16.416;2022-11-23T01:41:40;57.95;;;38.55;;
75926;SDS011;64605;48.296;16.416;2022-11-23T01:44:21;60.88;;;38.05;;
75926;SDS011;64605;48.296;16.416;2022-11-23T01:46:48;54.92;;;36.67;;
75926;SDS011;64605;48.296;16.416;2022-11-23T01:49:13;66.00;;;40.15;;
75926;SDS011;64605;48.296;16.416;2022-11-23T01:51:40;60.47;;;36.95;;
75926;SDS011;64605;48.296;16.416;2022-11-23T01:54:25;54.55;;;36.17;;
75926;SDS011;64605;48.296;16.416;2022-11-23T01:56:57;56.28;;;37.08;;
75926;SDS011;64605;48.296;16.416;2022-11-23T01:59:26;56.78;;;37.28;;
75926;SDS011;64605;48.296;16.416;2022-11-23T02:01:54;51.03;;;33.85;;
75926;SDS011;64605;48.296;16.416;2022-11-23T02:04:21;57.00;;;38.25;;
75926;SDS011;64605;48.296;16.416;2022-11-23T02:06:51;53.33;;;36.33;;
75926;SDS011;64605;48.296;16.416;2022-11-23T02:09:17;53.05;;;36.88;;
75926;SDS011;64605;48.296;16.416;2022-11-23T02:11:43;55.78;;;36.90;;
75926;SDS011;64605;48.296;16.416;2022-11-23T02:14:09;57.90;;;37.97;;
75926;SDS011;64605;48.296;16.416;2022-11-23T02:16:36;49.25;;;32.80;;
75926;SDS011;64605;48.296;16.416;2022-11-23T02:19:02;56.47;;;36.10;;
75926;SDS011;64605;48.296;16.416;2022-11-23T02:21:30;50.72;;;33.67;;
75926;SDS011;64605;48.296;16.416;2022-11-23T02:24:00;48.67;;;33.35;;
75926;SDS011;64605;48.296;16.416;2022-11-23T02:26:37;56.33;;;35.28;;
75926;SDS011;64605;48.296;16.416;2022-11-23T02:29:15;49.83;;;33.78;;
75926;SDS011;64605;48.296;16.416;2022-11-23T02:31:51;52.33;;;33.63;;
75926;SDS011;64605;48.296;16.416;2022-11-23T02:34:17;51.67;;;33.60;;
75926;SDS011;64605;48.296;16.416;2022-11-23T02:36:46;50.42;;;34.47;;
75926;SDS011;64605;48.296;16.416;2022-11-23T02:39:20;54.40;;;33.90;;
75926;SDS011;64605;48.296;16.416;2022-11-23T02:41:47;46.80;;;31.60;;
75926;SDS011;64605;48.296;16.416;2022-11-23T02:46:55;48.28;;;31.52;;
75926;SDS011;64605;48.296;16.416;2022-11-23T02:49:22;50.53;;;32.50;;
75926;SDS011;64605;48.296;16.416;2022-11-23T02:51:48;48.55;;;32.47;;
75926;SDS011;64605;48.296;16.416;2022-11-23T02:54:13;53.38;;;34.13;;
75926;SDS011;64605;48.296;16.416;2022-11-23T02:56:39;56.08;;;34.25;;
75926;SDS011;64605;48.296;16.416;2022-11-23T02:59:05;50.28;;;32.72;;
75926;SDS011;64605;48.296;16.416;2022-11-23T03:01:31;49.42;;;32.60;;
75926;SDS011;64605;48.296;16.416;2022-11-23T03:03:56;46.80;;;31.23;;
75926;SDS011;64605;48.296;16.416;2022-11-23T03:06:22;46.35;;;32.17;;
75926;SDS011;64605;48.296;16.416;2022-11-23T03:08:48;49.70;;;31.85;;
75926;SDS011;64605;48.296;16.416;2022-11-23T03:11:13;49.53;;;32.28;;
75926;SDS011;64605;48.296;16.416;2022-11-23T03:13:39;53.28;;;32.97;;
75926;SDS011;64605;48.296;16.416;2022-11-23T03:16:05;49.30;;;31.70;;
75926;SDS011;64605;48.296;16.416;2022-11-23T03:18:31;49.58;;;30.52;;
75926;SDS011;64605;48.296;16.416;2022-11-23T03:21:03;47.53;;;30.75;;
75926;SDS011;64605;48.296;16.416;2022-11-23T03:23:32;51.60;;;31.35;;
75926;SDS011;64605;48.296;16.416;2022-11-23T03:25:58;43.42;;;28.42;;
75926;SDS011;64605;48.296;16.416;2022-11-23T03:28:24;42.25;;;28.45;;
75926;SDS011;64605;48.296;16.416;2022-11-23T03:30:50;45.30;;;29.33;;
75926;SDS011;64605;48.296;16.416;2022-11-23T03:33:16;44.20;;;28.90;;
75926;SDS011;64605;48.296;16.416;2022-11-23T03:35:42;44.55;;;29.85;;
75926;SDS011;64605;48.296;16.416;2022-11-23T03:38:08;45.28;;;29.40;;
75926;SDS011;64605;48.296;16.416;2022-11-23T03:40:34;48.95;;;31.17;;
75926;SDS011;64605;48.296;16.416;2022-11-23T03:43:00;52.88;;;31.33;;
75926;SDS011;64605;48.296;16.416;2022-11-23T03:45:25;55.60;;;31.83;;
75926;SDS011;64605;48.296;16.416;2022-11-23T03:47:51;52.55;;;32.78;;
75926;SDS011;64605;48.296;16.416;2022-11-23T03:50:17;48.78;;;31.75;;
75926;SDS011;64605;48.296;16.416;2022-11-23T03:52:42;52.20;;;33.40;;
75926;SDS011;64605;48.296;16.416;2022-11-23T03:55:08;52.22;;;32.53;;
75926;SDS011;64605;48.296;16.416;2022-11-23T03:57:34;56.78;;;33.08;;
75926;SDS011;64605;48.296;16.416;2022-11-23T04:00:00;53.03;;;32.67;;
75926;SDS011;64605;48.296;16.416;2022-11-23T04:02:25;56.83;;;33.83;;
75926;SDS011;64605;48.296;16.416;2022-11-23T04:04:51;54.83;;;33.03;;
75926;SDS011;64605;48.296;16.416;2022-11-23T04:07:17;47.75;;;30.65;;
75926;SDS011;64605;48.296;16.416;2022-11-23T04:09:43;50.40;;;31.50;;
75926;SDS011;64605;48.296;16.416;2022-11-23T04:12:08;53.53;;;34.97;;
75926;SDS011;64605;48.296;16.416;2022-11-23T04:14:35;58.70;;;35.53;;
75926;SDS011;64605;48.296;16.416;2022-11-23T04:17:00;53.20;;;32.60;;
75926;SDS011;64605;48.296;16.416;2022-11-23T04:19:27;57.40;;;34.42;;
75926;SDS011;64605;48.296;16.416;2022-11-23T04:21:53;56.70;;;34.47;;
75926;SDS011;64605;48.296;16.416;2022-11-23T04:24:19;52.22;;;32.80;;
75926;SDS011;64605;48.296;16.416;2022-11-23T04:26:44;54.88;;;35.03;;
75926;SDS011;64605;48.296;16.416;2022-11-23T04:29:10;50.38;;;30.65;;
75926;SDS011;64605;48.296;16.416;2022-11-23T04:31:36;53.38;;;32.50;;
75926;SDS011;64605;48.296;16.416;2022-11-23T04:34:02;51.90;;;32.47;;
75926;SDS011;64605;48.296;16.416;2022-11-23T04:36:28;49.75;;;30.80;;
75926;SDS011;64605;48.296;16.416;2022-11-23T04:38:53;63.20;;;36.20;;
75926;SDS011;64605;48.296;16.416;2022-11-23T04:41:19;58.38;;;35.95;;
75926;SDS011;64605;48.296;16.416;2022-11-23T04:43:46;50.75;;;31.85;;
75926;SDS011;64605;48.296;16.416;2022-11-23T04:46:12;52.75;;;30.58;;
75926;SDS011;64605;48.296;16.416;2022-11-23T04:48:38;54.17;;;33.00;;
75926;SDS011;64605;48.296;16.416;2022-11-23T04:51:03;48.08;;;29.17;;
75926;SDS011;64605;48.296;16.416;2022-11-23T04:53:29;54.80;;;33.22;;
75926;SDS011;64605;48.296;16.416;2022-11-23T04:55:55;55.03;;;32.45;;
75926;SDS011;64605;48.296;16.416;2022-11-23T04:58:20;50.47;;;29.42;;
75926;SDS011;64605;48.296;16.416;2022-11-23T05:00:46;42.88;;;27.40;;
75926;SDS011;64605;48.296;16.416;2022-11-23T05:03:12;44.83;;;28.90;;
75926;SDS011;64605;48.296;16.416;2022-11-23T05:05:38;45.72;;;29.90;;
75926;SDS011;64605;48.296;16.416;2022-11-23T05:08:04;56.28;;;33.00;;
75926;SDS011;64605;48.296;16.416;2022-11-23T05:10:30;48.20;;;30.20;;
75926;SDS011;64605;48.296;16.416;2022-11-23T05:12:56;46.88;;;27.70;;
75926;SDS011;64605;48.296;16.416;2022-11-23T05:15:21;47.60;;;29.10;;
75926;SDS011;64605;48.296;16.416;2022-11-23T05:17:47;53.20;;;32.67;;
75926;SDS011;64605;48.296;16.416;2022-11-23T05:20:13;49.03;;;30.55;;
75926;SDS011;64605;48.296;16.416;2022-11-23T05:22:39;52.03;;;31.77;;
75926;SDS011;64605;48.296;16.416;2022-11-23T05:25:04;54.05;;;31.83;;
75926;SDS011;64605;48.296;16.416;2022-11-23T05:27:30;52.75;;;32.42;;
75926;SDS011;64605;48.296;16.416;2022-11-23T05:29:56;54.00;;;33.92;;
75926;SDS011;64605;48.296;16.416;2022-11-23T05:32:22;59.20;;;34.53;;
75926;SDS011;64605;48.296;16.416;2022-11-23T05:34:47;58.78;;;35.30;;
75926;SDS011;64605;48.296;16.416;2022-11-23T05:37:14;61.75;;;35.90;;
75926;SDS011;64605;48.296;16.416;2022-11-23T05:39:39;54.92;;;34.40;;
75926;SDS011;64605;48.296;16.416;2022-11-23T05:42:05;50.20;;;31.90;;
75926;SDS011;64605;48.296;16.416;2022-11-23T05:44:31;52.65;;;32.85;;
75926;SDS011;64605;48.296;16.416;2022-11-23T05:46:56;55.00;;;31.45;;
75926;SDS011;64605;48.296;16.416;2022-11-23T05:49:22;56.00;;;33.25;;
75926;SDS011;64605;48.296;16.416;2022-11-23T05:51:48;53.47;;;32.33;;
75926;SDS011;64605;48.296;16.416;2022-11-23T05:54:13;49.63;;;31.05;;
75926;SDS011;64605;48.296;16.416;2022-11-23T05:56:39;52.60;;;32.10;;
75926;SDS011;64605;48.296;16.416;2022-11-23T05:59:05;57.45;;;32.50;;
75926;SDS011;64605;48.296;16.416;2022-11-23T06:01:31;63.53;;;34.67;;
75926;SDS011;64605;48.296;16.416;2022-11-23T06:03:57;53.65;;;32.05;;
75926;SDS011;64605;48.296;16.416;2022-11-23T06:06:23;54.90;;;32.20;;
75926;SDS011;64605;48.296;16.416;2022-11-23T06:08:48;55.38;;;32.00;;
75926;SDS011;64605;48.296;16.416;2022-11-23T06:11:14;57.92;;;34.03;;
75926;SDS011;64605;48.296;16.416;2022-11-23T06:13:41;54.33;;;31.33;;
75926;SDS011;64605;48.296;16.416;2022-11-23T06:16:06;59.42;;;35.13;;
75926;SDS011;64605;48.296;16.416;2022-11-23T06:18:32;61.05;;;34.00;;
75926;SDS011;64605;48.296;16.416;2022-11-23T06:20:58;54.25;;;31.38;;
75926;SDS011;64605;48.296;16.416;2022-11-23T06:23:25;54.80;;;31.08;;
75926;SDS011;64605;48.296;16.416;2022-11-23T06:25:50;52.15;;;30.60;;
75926;SDS011;64605;48.296;16.416;2022-11-23T06:28:16;46.53;;;28.55;;
75926;SDS011;64605;48.296;16.416;2022-11-23T06:30:42;46.78;;;28.02;;
75926;SDS011;64605;48.296;16.416;2022-11-23T06:33:07;49.72;;;30.35;;
75926;SDS011;64605;48.296;16.416;2022-11-23T06:35:33;47.05;;;28.50;;
75926;SDS011;64605;48.296;16.416;2022-11-23T06:37:59;52.15;;;30.08;;
75926;SDS011;64605;48.296;16.416;2022-11-23T06:40:24;50.33;;;29.83;;
75926;SDS011;64605;48.296;16.416;2022-11-23T06:42:50;49.72;;;29.42;;
75926;SDS011;64605;48.296;16.416;2022-11-23T06:45:21;48.17;;;28.58;;
75926;SDS011;64605;48.296;16.416;2022-11-23T06:47:47;53.67;;;31.75;;
75926;SDS011;64605;48.296;16.416;2022-11-23T06:50:12;55.78;;;32.28;;
75926;SDS011;64605;48.296;16.416;2022-11-23T06:52:38;57.30;;;32.30;;
75926;SDS011;64605;48.296;16.416;2022-11-23T06:55:04;54.67;;;31.33;;
75926;SDS011;64605;48.296;16.416;2022-11-23T06:57:30;48.85;;;29.20;;
75926;SDS011;64605;48.296;16.416;2022-11-23T06:59:56;49.50;;;28.83;;
75926;SDS011;64605;48.296;16.416;2022-11-23T07:02:22;57.20;;;31.42;;
75926;SDS011;64605;48.296;16.416;2022-11-23T07:04:49;52.90;;;29.63;;
75926;SDS011;64605;48.296;16.416;2022-11-23T07:07:16;37.38;;;25.25;;
75926;SDS011;64605;48.296;16.416;2022-11-23T07:09:41;42.80;;;26.25;;
75926;SDS011;64605;48.296;16.416;2022-11-23T07:12:07;37.00;;;23.40;;
75926;SDS011;64605;48.296;16.416;2022-11-23T07:14:33;37.75;;;23.80;;
75926;SDS011;64605;48.296;16.416;2022-11-23T07:16:58;37.45;;;22.05;;
75926;SDS011;64605;48.296;16.416;2022-11-23T07:19:24;33.78;;;21.90;;
75926;SDS011;64605;48.296;16.416;2022-11-23T07:21:50;31.65;;;21.42;;
75926;SDS011;64605;48.296;16.416;2022-11-23T07:24:15;31.33;;;20.40;;
75926;SDS011;64605;48.296;16.416;2022-11-23T07:26:41;36.90;;;21.80;;
75926;SDS011;64605;48.296;16.416;2022-11-23T07:29:06;32.50;;;21.13;;
75926;SDS011;64605;48.296;16.416;2022-11-23T07:31:32;32.90;;;20.73;;
75926;SDS011;64605;48.296;16.416;2022-11-23T07:33:58;33.08;;;20.48;;
75926;SDS011;64605;48.296;16.416;2022-11-23T07:36:23;31.98;;;19.70;;
75926;SDS011;64605;48.296;16.416;2022-11-23T07:38:49;27.90;;;17.80;;
75926;SDS011;64605;48.296;16.416;2022-11-23T07:41:15;31.17;;;19.08;;
75926;SDS011;64605;48.296;16.416;2022-11-23T07:43:40;24.33;;;15.93;;
75926;SDS011;64605;48.296;16.416;2022-11-23T07:46:06;22.50;;;14.32;;
75926;SDS011;64605;48.296;16.416;2022-11-23T07:48:32;20.77;;;14.02;;
75926;SDS011;64605;48.296;16.416;2022-11-23T07:50:57;19.83;;;14.45;;
75926;SDS011;64605;48.296;16.416;2022-11-23T07:53:23;26.30;;;15.73;;
75926;SDS011;64605;48.296;16.416;2022-11-23T07:55:48;23.88;;;14.85;;
75926;SDS011;64605;48.296;16.416;2022-11-23T07:58:18;23.45;;;14.70;;
75926;SDS011;64605;48.296;16.416;2022-11-23T08:00:44;21.15;;;14.55;;
75926;SDS011;64605;48.296;16.416;2022-11-23T08:03:10;24.90;;;15.77;;
75926;SDS011;64605;48.296;16.416;2022-11-23T08:05:38;17.55;;;13.50;;
75926;SDS011;64605;48.296;16.416;2022-11-23T08:08:04;24.77;;;15.38;;
75926;SDS011;64605;48.296;16.416;2022-11-23T08:10:30;20.25;;;12.98;;
75926;SDS011;64605;48.296;16.416;2022-11-23T08:12:58;18.02;;;12.70;;
75926;SDS011;64605;48.296;16.416;2022-11-23T08:15:25;20.92;;;14.63;;
75926;SDS011;64605;48.296;16.416;2022-11-23T08:17:58;20.15;;;13.43;;
75926;SDS011;64605;48.296;16.416;2022-11-23T08:20:26;23.15;;;14.63;;
75926;SDS011;64605;48.296;16.416;2022-11-23T08:22:53;18.67;;;12.55;;
75926;SDS011;64605;48.296;16.416;2022-11-23T08:25:22;20.65;;;14.00;;
75926;SDS011;64605;48.296;16.416;2022-11-23T08:27:59;20.00;;;13.68;;
75926;SDS011;64605;48.296;16.416;2022-11-23T08:30:28;19.85;;;13.88;;
75926;SDS011;64605;48.296;16.416;2022-11-23T08:32:54;30.38;;;17.55;;
75926;SDS011;64605;48.296;16.416;2022-11-23T08:35:20;17.80;;;12.43;;
75926;SDS011;64605;48.296;16.416;2022-11-23T08:37:46;33.08;;;16.75;;
75926;SDS011;64605;48.296;16.416;2022-11-23T08:40:12;54.45;;;28.27;;
75926;SDS011;64605;48.296;16.416;2022-11-23T08:42:38;18.40;;;12.35;;
75926;SDS011;64605;48.296;16.416;2022-11-23T08:45:04;16.77;;;11.93;;
75926;SDS011;64605;48.296;16.416;2022-11-23T08:47:31;15.82;;;11.20;;
75926;SDS011;64605;48.296;16.416;2022-11-23T08:49:57;17.67;;;12.00;;
75926;SDS011;64605;48.296;16.416;2022-11-23T08:52:24;17.92;;;12.30;;
75926;SDS011;64605;48.296;16.416;2022-11-23T08:54:50;22.83;;;13.13;;
75926;SDS011;64605;48.296;16.416;2022-11-23T08:57:16;18.30;;;12.13;;
75926;SDS011;64605;48.296;16.416;2022-11-23T08:59:42;18.15;;;12.45;;
75926;SDS011;64605;48.296;16.416;2022-11-23T09:02:09;16.02;;;11.18;;
75926;SDS011;64605;48.296;16.416;2022-11-23T09:04:38;15.60;;;11.32;;
75926;SDS011;64605;48.296;16.416;2022-11-23T09:07:04;16.27;;;11.95;;
75926;SDS011;64605;48.296;16.416;2022-11-23T09:09:29;17.45;;;12.20;;
75926;SDS011;64605;48.296;16.416;2022-11-23T09:11:55;18.52;;;11.98;;
75926;SDS011;64605;48.296;16.416;2022-11-23T09:14:21;17.02;;;11.65;;
75926;SDS011;64605;48.296;16.416;2022-11-23T09:16:47;18.35;;;12.13;;
75926;SDS011;64605;48.296;16.416;2022-11-23T09:19:13;20.30;;;13.18;;
75926;SDS011;64605;48.296;16.416;2022-11-23T09:21:39;17.58;;;11.30;;
75926;SDS011;64605;48.296;16.416;2022-11-23T09:24:06;15.32;;;11.02;;
75926;SDS011;64605;48.296;16.416;2022-11-23T09:26:36;14.27;;;9.55;;
75926;SDS011;64605;48.296;16.416;2022-11-23T09:29:05;16.83;;;11.15;;
75926;SDS011;64605;48.296;16.416;2022-11-23T09:31:32;13.32;;;8.93;;
75926;SDS011;64605;48.296;16.416;2022-11-23T09:33:58;15.18;;;10.13;;
75926;SDS011;64605;48.296;16.416;2022-11-23T09:36:24;15.85;;;11.07;;
75926;SDS011;64605;48.296;16.416;2022-11-23T09:38:50;12.38;;;9.23;;
75926;SDS011;64605;48.296;16.416;2022-11-23T09:52:13;13.65;;;9.30;;
75926;SDS011;64605;48.296;16.416;2022-11-23T09:54:45;14.45;;;9.27;;
75926;SDS011;64605;48.296;16.416;2022-11-23T09:57:15;10.80;;;8.35;;
75926;SDS011;64605;48.296;16.416;2022-11-23T09:59:49;12.85;;;8.32;;
75926;SDS011;64605;48.296;16.416;2022-11-23T10:02:33;11.43;;;8.93;;
75926;SDS011;64605;48.296;16.416;2022-11-23T10:05:04;12.45;;;8.55;;
75926;SDS011;64605;48.296;16.416;2022-11-23T10:07:47;11.82;;;8.63;;
75926;SDS011;64605;48.296;16.416;2022-11-23T10:26:33;9.20;;;6.95;;
75926;SDS011;64605;48.296;16.416;2022-11-23T10:29:10;10.30;;;7.20;;
75926;SDS011;64605;48.296;16.416;2022-11-23T10:31:45;8.63;;;6.53;;
75926;SDS011;64605;48.296;16.416;2022-11-23T10:34:13;12.18;;;8.90;;
75926;SDS011;64605;48.296;16.416;2022-11-23T10:36:44;10.40;;;7.90;;
75926;SDS011;64605;48.296;16.416;2022-11-23T10:41:50;9.93;;;6.85;;
75926;SDS011;64605;48.296;16.416;2022-11-23T10:46:42;9.15;;;6.07;;
75926;SDS011;64605;48.296;16.416;2022-11-23T10:51:40;10.23;;;7.25;;
75926;SDS011;64605;48.296;16.416;2022-11-23T10:56:49;10.43;;;7.13;;
75926;SDS011;64605;48.296;16.416;2022-11-23T10:59:26;9.48;;;6.97;;
75926;SDS011;64605;48.296;16.416;2022-11-23T11:04:42;6.88;;;5.95;;
75926;SDS011;64605;48.296;16.416;2022-11-23T11:09:59;7.15;;;6.10;;
75926;SDS011;64605;48.296;16.416;2022-11-23T11:12:26;7.03;;;6.25;;
75926;SDS011;64605;48.296;16.416;2022-11-23T11:15:35;6.05;;;4.93;;
75926;SDS011;64605;48.296;16.416;2022-11-23T11:17:43;6.43;;;5.20;;
75926;SDS011;64605;48.296;16.416;2022-11-23T11:20:28;7.30;;;5.93;;
75926;SDS011;64605;48.296;16.416;2022-11-23T11:23:19;7.28;;;6.00;;
75926;SDS011;64605;48.296;16.416;2022-11-23T11:25:45;8.40;;;6.13;;
75926;SDS011;64605;48.296;16.416;2022-11-23T11:28:20;7.22;;;5.80;;
75926;SDS011;64605;48.296;16.416;2022-11-23T11:30:58;6.75;;;6.15;;
75926;SDS011;64605;48.296;16.416;2022-11-23T11:33:28;6.32;;;5.72;;
75926;SDS011;64605;48.296;16.416;2022-11-23T11:36:06;6.07;;;5.45;;
75926;SDS011;64605;48.296;16.416;2022-11-23T11:38:34;7.63;;;5.50;;
75926;SDS011;64605;48.296;16.416;2022-11-23T11:41:06;6.65;;;5.95;;
75926;SDS011;64605;48.296;16.416;2022-11-23T11:46:09;6.47;;;4.97;;
75926;SDS011;64605;48.296;16.416;2022-11-23T11:48:49;5.85;;;4.82;;
75926;SDS011;64605;48.296;16.416;2022-11-23T11:51:19;6.55;;;5.57;;
75926;SDS011;64605;48.296;16.416;2022-11-23T11:54:30;7.10;;;5.47;;
75926;SDS011;64605;48.296;16.416;2022-11-23T11:57:27;6.50;;;5.68;;
75926;SDS011;64605;48.296;16.416;2022-11-23T12:00:01;8.20;;;5.90;;
75926;SDS011;64605;48.296;16.416;2022-11-23T12:02:35;16.63;;;9.43;;
75926;SDS011;64605;48.296;16.416;2022-11-23T12:10:31;6.68;;;5.10;;
75926;SDS011;64605;48.296;16.416;2022-11-23T12:13:18;7.32;;;5.25;;
75926;SDS011;64605;48.296;16.416;2022-11-23T12:16:02;5.50;;;4.47;;
75926;SDS011;64605;48.296;16.416;2022-11-23T12:18:44;8.32;;;5.95;;
75926;SDS011;64605;48.296;16.416;2022-11-23T12:24:02;6.18;;;4.88;;
75926;SDS011;64605;48.296;16.416;2022-11-23T12:34:46;5.90;;;4.80;;
75926;SDS011;64605;48.296;16.416;2022-11-23T12:37:43;7.50;;;4.93;;
75926;SDS011;64605;48.296;16.416;2022-11-23T12:40:39;6.45;;;4.60;;
75926;SDS011;64605;48.296;16.416;2022-11-23T12:43:13;6.40;;;5.07;;
75926;SDS011;64605;48.296;16.416;2022-11-23T12:46:07;5.50;;;4.63;;
75926;SDS011;64605;48.296;16.416;2022-11-23T13:00:03;5.60;;;4.68;;
75926;SDS011;64605;48.296;16.416;2022-11-23T13:21:42;5.25;;;4.07;;
75926;SDS011;64605;48.296;16.416;2022-11-23T13:35:47;5.57;;;4.68;;
75926;SDS011;64605;48.296;16.416;2022-11-23T13:40:34;6.57;;;4.57;;
75926;SDS011;64605;48.296;16.416;2022-11-23T13:43:42;6.78;;;4.88;;
75926;SDS011;64605;48.296;16.416;2022-11-23T13:48:44;5.93;;;4.07;;
75926;SDS011;64605;48.296;16.416;2022-11-23T13:51:11;5.68;;;4.70;;
75926;SDS011;64605;48.296;16.416;2022-11-23T13:53:40;5.20;;;4.68;;
75926;SDS011;64605;48.296;16.416;2022-11-23T13:58:55;5.65;;;4.95;;
75926;SDS011;64605;48.296;16.416;2022-11-23T14:15:16;6.15;;;5.20;;
75926;SDS011;64605;48.296;16.416;2022-11-23T14:17:51;6.47;;;5.40;;
75926;SDS011;64605;48.296;16.416;2022-11-23T14:26:20;5.75;;;5.07;;
75926;SDS011;64605;48.296;16.416;2022-11-23T14:37:42;6.95;;;6.10;;
75926;SDS011;64605;48.296;16.416;2022-11-23T14:43:01;8.00;;;6.43;;
75926;SDS011;64605;48.296;16.416;2022-11-23T14:45:28;7.38;;;6.60;;
75926;SDS011;64605;48.296;16.416;2022-11-23T14:48:18;8.77;;;6.03;;
75926;SDS011;64605;48.296;16.416;2022-11-23T14:51:00;6.97;;;6.13;;
75926;SDS011;64605;48.296;16.416;2022-11-23T14:53:45;7.45;;;6.45;;
75926;SDS011;64605;48.296;16.416;2022-11-23T14:56:17;7.22;;;6.53;;
75926;SDS011;64605;48.296;16.416;2022-11-23T14:59:44;9.80;;;6.88;;
75926;SDS011;64605;48.296;16.416;2022-11-23T15:02:00;9.95;;;7.20;;
75926;SDS011;64605;48.296;16.416;2022-11-23T15:04:30;7.50;;;6.70;;
75926;SDS011;64605;48.296;16.416;2022-11-23T15:07:05;7.90;;;6.95;;
75926;SDS011;64605;48.296;16.416;2022-11-23T15:09:41;8.82;;;7.13;;
75926;SDS011;64605;48.296;16.416;2022-11-23T15:12:22;8.45;;;6.85;;
75926;SDS011;64605;48.296;16.416;2022-11-23T15:14:54;11.00;;;7.30;;
75926;SDS011;64605;48.296;16.416;2022-11-23T15:17:23;11.68;;;7.28;;
75926;SDS011;64605;48.296;16.416;2022-11-23T15:19:56;9.07;;;8.02;;
75926;SDS011;64605;48.296;16.416;2022-11-23T15:22:24;7.88;;;7.05;;
75926;SDS011;64605;48.296;16.416;2022-11-23T15:24:52;9.00;;;7.65;;
75926;SDS011;64605;48.296;16.416;2022-11-23T15:27:21;9.52;;;8.05;;
75926;SDS011;64605;48.296;16.416;2022-11-23T15:29:53;8.77;;;7.88;;
75926;SDS011;64605;48.296;16.416;2022-11-23T15:32:21;10.93;;;8.10;;
75926;SDS011;64605;48.296;16.416;2022-11-23T15:34:52;9.55;;;8.52;;
75926;SDS011;64605;48.296;16.416;2022-11-23T15:37:20;10.07;;;8.02;;
75926;SDS011;64605;48.296;16.416;2022-11-23T15:39:47;9.65;;;7.97;;
75926;SDS011;64605;48.296;16.416;2022-11-23T15:42:14;9.90;;;8.30;;
75926;SDS011;64605;48.296;16.416;2022-11-23T15:44:42;8.68;;;7.68;;
75926;SDS011;64605;48.296;16.416;2022-11-23T15:47:10;10.95;;;8.60;;
75926;SDS011;64605;48.296;16.416;2022-11-23T15:49:44;9.30;;;7.70;;
75926;SDS011;64605;48.296;16.416;2022-11-23T15:52:12;13.23;;;10.27;;
75926;SDS011;64605;48.296;16.416;2022-11-23T15:54:40;13.07;;;10.43;;
75926;SDS011;64605;48.296;16.416;2022-11-23T15:57:07;12.93;;;10.23;;
75926;SDS011;64605;48.296;16.416;2022-11-23T15:59:39;10.20;;;8.25;;
75926;SDS011;64605;48.296;16.416;2022-11-23T16:02:21;11.43;;;8.65;;
75926;SDS011;64605;48.296;16.416;2022-11-23T16:04:48;11.93;;;8.57;;
75926;SDS011;64605;48.296;16.416;2022-11-23T16:10:31;8.80;;;7.63;;
75926;SDS011;64605;48.296;16.416;2022-11-23T16:13:00;9.13;;;7.63;;
75926;SDS011;64605;48.296;16.416;2022-11-23T16:15:31;11.65;;;8.57;;
75926;SDS011;64605;48.296;16.416;2022-11-23T16:20:52;10.20;;;8.98;;
75926;SDS011;64605;48.296;16.416;2022-11-23T16:23:40;10.15;;;8.57;;
75926;SDS011;64605;48.296;16.416;2022-11-23T16:26:10;10.43;;;9.27;;
75926;SDS011;64605;48.296;16.416;2022-11-23T16:28:37;11.70;;;8.60;;
75926;SDS011;64605;48.296;16.416;2022-11-23T16:34:14;11.93;;;8.70;;
75926;SDS011;64605;48.296;16.416;2022-11-23T16:36:41;10.60;;;8.77;;
75926;SDS011;64605;48.296;16.416;2022-11-23T16:39:07;10.95;;;8.73;;
75926;SDS011;64605;48.296;16.416;2022-11-23T16:41:32;10.68;;;8.88;;
75926;SDS011;64605;48.296;16.416;2022-11-23T16:43:58;12.88;;;9.00;;
75926;SDS011;64605;48.296;16.416;2022-11-23T16:46:24;12.57;;;8.68;;
75926;SDS011;64605;48.296;16.416;2022-11-23T16:48:50;11.75;;;9.20;;
75926;SDS011;64605;48.296;16.416;2022-11-23T16:51:18;10.85;;;8.60;;
75926;SDS011;64605;48.296;16.416;2022-11-23T16:53:44;12.73;;;8.68;;
75926;SDS011;64605;48.296;16.416;2022-11-23T16:56:17;12.55;;;8.90;;
75926;SDS011;64605;48.296;16.416;2022-11-23T16:58:45;12.88;;;9.02;;
75926;SDS011;64605;48.296;16.416;2022-11-23T17:01:18;13.85;;;9.48;;